.
Local / Fort Wayne - NE Ind.

U N D E R   C O N S T R U C T I O N

Local Weather
Fort Wayne – NE Indiana

Northern Indiana (IWX) Radar

Latest IWX NEXRAD
Base Reflectivity



Latest IWX NEXRAD
Base Velocity

Indiana-Ohio Visible Satellite

For infrared and water vapor imagery, see Great Lakes - Midwest.

Current Conditions

Recent report from the Fort Wayne International Airport

Jun 20, 2018 - 04:54 PM EDT / 2018.06.20 2054 UTC


The skies are mostly cloudy. The temperature is 80.1 F (26.7 C) and the dew point is 73.0 F (22.8 C), giving a relative humidity of 79%. The barometric pressure is 29.83 in. Hg (1010 hPa) and falling. The wind is from the N (350 degrees) at 12 MPH (10 KT), and the visibility is 7 mile(s).

KFWA 202054Z 35010KT 7SM FEW024 FEW030 BKN060 BKN250 27/23 A2983 RMK AO2 SLP094 60000 T02670228 57009

Local Weather — Contents

Local Weather — Links

CoCoRaHS
IN-AL-39
A2 Web Hosting
Creative Commons License
GoDaddy
Look for:

loaded 2018-06-20 17:11:04 • last modified 2017-02-11 13:27:36
Privacy PolicyDisclaimer
• wx.awcolley.com is powered by PmWiki v.2002016 •
• all content (unless otherwise noted) © 2018 A W Colley